createdAt,value
2018-06-16T00:00:11.704Z,52.62
2018-06-16T00:00:33.517Z,53.16
2018-06-16T00:00:55.285Z,52.77
2018-06-16T00:01:17.039Z,53.09
2018-06-16T00:01:38.808Z,53.06
2018-06-16T00:02:00.799Z,52.69
2018-06-16T00:02:22.808Z,52.54
2018-06-16T00:02:44.657Z,52.87
2018-06-16T00:03:06.412Z,52.89
2018-06-16T00:03:28.175Z,52.57
2018-06-16T00:03:50.026Z,53.18
2018-06-16T00:04:11.765Z,52.37
2018-06-16T00:04:33.533Z,53.03
2018-06-16T00:04:55.309Z,52.38
2018-06-16T00:05:17.106Z,52.55
2018-06-16T00:05:38.884Z,52.22
2018-06-16T00:06:00.916Z,53.19
2018-06-16T00:06:22.811Z,52.83
2018-06-16T00:06:44.587Z,52.91
2018-06-16T00:07:06.456Z,52.41
2018-06-16T00:07:28.207Z,52.48
2018-06-16T00:07:49.973Z,53.08
2018-06-16T00:08:11.865Z,52.42
2018-06-16T00:08:33.657Z,52.96
2018-06-16T00:08:55.549Z,52.29
2018-06-16T00:09:17.303Z,52.31
2018-06-16T00:09:39.083Z,52.42
2018-06-16T00:10:00.854Z,52.55
2018-06-16T00:10:22.615Z,52.64
2018-06-16T00:10:44.411Z,52.54
2018-06-16T00:11:06.327Z,52.26
2018-06-16T00:11:28.095Z,52.94
2018-06-16T00:11:49.850Z,53.31
2018-06-16T00:12:11.637Z,52.56
2018-06-16T00:12:33.418Z,52.98
2018-06-16T00:12:55.231Z,52.58
2018-06-16T00:13:17.210Z,52.25
2018-06-16T00:13:39.012Z,52.89
2018-06-16T00:14:00.732Z,52.21
2018-06-16T00:14:22.516Z,52.48
2018-06-16T00:14:44.281Z,52.47
2018-06-16T00:15:06.252Z,52.69
2018-06-16T00:15:28.210Z,52.90
2018-06-16T00:15:50.000Z,52.04
2018-06-16T00:16:11.776Z,53.25
2018-06-16T00:16:33.584Z,52.99
2018-06-16T00:16:55.380Z,52.33
2018-06-16T00:17:17.333Z,52.96
2018-06-16T00:17:39.099Z,52.71
2018-06-16T00:18:00.861Z,52.54
2018-06-16T00:18:22.623Z,53.11
2018-06-16T00:18:44.374Z,53.19
2018-06-16T00:19:06.136Z,52.35
2018-06-16T00:19:27.883Z,53.17
2018-06-16T00:19:49.646Z,52.56
2018-06-16T00:20:11.558Z,52.23
2018-06-16T00:20:33.471Z,52.51
2018-06-16T00:20:55.296Z,53.24
2018-06-16T00:21:17.110Z,52.98
2018-06-16T00:21:38.872Z,52.68
2018-06-16T00:22:00.646Z,52.69
2018-06-16T00:22:22.394Z,53.26
2018-06-16T00:22:44.334Z,52.89
2018-06-16T00:23:06.100Z,52.65
2018-06-16T00:23:28.016Z,53.07
2018-06-16T00:23:49.771Z,52.60
2018-06-16T00:24:11.556Z,52.57
2018-06-16T00:24:33.311Z,52.81
2018-06-16T00:24:59.415Z,53.00
2018-06-16T00:25:21.202Z,52.54
2018-06-16T00:25:42.980Z,53.10
2018-06-16T00:26:04.960Z,53.22
2018-06-16T00:26:26.733Z,53.30
2018-06-16T00:26:48.512Z,52.90
2018-06-16T00:27:10.300Z,52.50
2018-06-16T00:27:32.068Z,53.33
2018-06-16T00:27:54.060Z,52.89
2018-06-16T00:28:15.826Z,53.26
2018-06-16T00:28:37.579Z,53.04
2018-06-16T00:28:59.369Z,52.58
2018-06-16T00:29:21.129Z,53.05
2018-06-16T00:29:43.105Z,52.74
2018-06-16T00:30:04.893Z,52.62
2018-06-16T00:30:26.661Z,52.54
2018-06-16T00:30:48.426Z,52.52
2018-06-16T00:31:10.197Z,52.50
2018-06-16T00:31:31.951Z,52.58
2018-06-16T00:31:53.709Z,53.09
2018-06-16T00:32:15.492Z,52.95
2018-06-16T00:32:37.260Z,52.93
2018-06-16T00:32:59.035Z,53.27
2018-06-16T00:33:20.816Z,52.86
2018-06-16T00:33:42.609Z,52.84
2018-06-16T00:34:04.368Z,53.13
2018-06-16T00:34:26.138Z,52.79
2018-06-16T00:34:47.903Z,53.31
2018-06-16T00:35:09.665Z,52.75
2018-06-16T00:35:31.472Z,52.36
2018-06-16T00:35:53.243Z,52.92
2018-06-16T00:36:15.056Z,52.60
2018-06-16T00:36:36.819Z,53.04
2018-06-16T00:36:58.584Z,53.16
2018-06-16T00:37:20.668Z,52.74
2018-06-16T00:37:42.438Z,53.00
2018-06-16T00:38:04.217Z,52.38
2018-06-16T00:38:25.978Z,52.57
2018-06-16T00:38:47.744Z,52.65
2018-06-16T00:39:10.953Z,52.51
2018-06-16T00:39:32.736Z,53.16
2018-06-16T00:39:54.537Z,52.91
2018-06-16T00:40:16.298Z,53.31
2018-06-16T00:40:38.063Z,52.76
2018-06-16T00:40:59.827Z,53.42
2018-06-16T00:41:21.710Z,53.02
2018-06-16T00:41:43.431Z,52.69
2018-06-16T00:42:05.202Z,53.25
2018-06-16T00:42:26.981Z,52.64
2018-06-16T00:42:48.725Z,52.16
2018-06-16T00:43:10.601Z,53.17
2018-06-16T00:43:32.384Z,52.99
2018-06-16T00:43:54.150Z,52.47
2018-06-16T00:44:15.931Z,53.27
2018-06-16T00:44:37.714Z,52.79
2018-06-16T00:44:59.469Z,52.79
2018-06-16T00:45:21.214Z,52.82
2018-06-16T00:45:42.988Z,52.63
2018-06-16T00:46:04.756Z,53.15
2018-06-16T00:46:26.540Z,53.12
2018-06-16T00:46:48.304Z,52.89
2018-06-16T00:47:10.088Z,52.74
2018-06-16T00:47:31.857Z,53.00
2018-06-16T00:47:53.631Z,53.11
2018-06-16T00:48:15.395Z,52.28
2018-06-16T00:48:37.161Z,52.87
2018-06-16T00:48:58.924Z,52.76
2018-06-16T00:49:20.684Z,53.13
2018-06-16T00:49:42.565Z,52.90
2018-06-16T00:50:04.330Z,52.32
2018-06-16T00:50:26.069Z,52.48
2018-06-16T00:50:47.832Z,52.85
2018-06-16T00:51:09.797Z,52.84
2018-06-16T00:51:31.592Z,52.62
2018-06-16T00:51:53.355Z,52.53
2018-06-16T00:52:15.164Z,52.86
2018-06-16T00:52:36.933Z,52.96
2018-06-16T00:52:58.713Z,52.94
2018-06-16T00:53:20.476Z,52.87
2018-06-16T00:53:42.245Z,52.00
2018-06-16T00:54:04.020Z,53.10
2018-06-16T00:54:25.787Z,52.95
2018-06-16T00:54:47.547Z,52.34
2018-06-16T00:55:09.354Z,52.63
2018-06-16T00:55:31.139Z,52.81
2018-06-16T00:55:52.898Z,52.90
2018-06-16T00:56:14.663Z,52.57
2018-06-16T00:56:36.471Z,52.53
2018-06-16T00:56:58.544Z,52.99
2018-06-16T00:57:20.333Z,53.22
2018-06-16T00:57:43.624Z,53.05
2018-06-16T00:58:05.379Z,52.52
2018-06-16T00:58:27.143Z,52.42
2018-06-16T00:58:48.904Z,52.92
2018-06-16T00:59:10.664Z,52.90
2018-06-16T00:59:32.424Z,52.76
2018-06-16T00:59:54.189Z,52.77
2018-06-16T01:00:16.917Z,52.32
2018-06-16T01:00:38.689Z,52.92
2018-06-16T01:01:00.460Z,52.31
2018-06-16T01:01:22.207Z,53.20
2018-06-16T01:01:44.012Z,52.31
2018-06-16T01:02:05.793Z,52.50
2018-06-16T01:02:27.570Z,52.45
2018-06-16T01:02:49.583Z,52.83
2018-06-16T01:03:11.356Z,52.31
2018-06-16T01:03:33.114Z,52.34
2018-06-16T01:03:54.883Z,52.26
2018-06-16T01:04:16.643Z,52.68
2018-06-16T01:04:38.430Z,52.92
2018-06-16T01:05:00.184Z,52.23
2018-06-16T01:05:21.955Z,53.10
2018-06-16T01:05:43.729Z,52.84
2018-06-16T01:06:05.512Z,53.08
2018-06-16T01:06:27.281Z,52.25
2018-06-16T01:06:49.090Z,52.29
2018-06-16T01:07:10.873Z,53.02
2018-06-16T01:07:32.664Z,52.74
2018-06-16T01:07:54.421Z,52.38
2018-06-16T01:08:16.177Z,52.95
2018-06-16T01:08:37.944Z,52.80
2018-06-16T01:08:59.696Z,52.52
2018-06-16T01:09:21.463Z,52.87
2018-06-16T01:09:43.227Z,52.23
2018-06-16T01:10:04.996Z,52.78
2018-06-16T01:10:26.769Z,52.36
2018-06-16T01:10:48.558Z,52.71
2018-06-16T01:11:10.321Z,53.00
2018-06-16T01:11:32.106Z,52.84
2018-06-16T01:11:53.892Z,52.78
2018-06-16T01:12:15.660Z,52.28
2018-06-16T01:12:37.446Z,52.83
2018-06-16T01:12:59.200Z,52.82
2018-06-16T01:13:20.968Z,52.71
2018-06-16T01:13:42.734Z,52.05
2018-06-16T01:14:04.495Z,52.83
2018-06-16T01:14:26.284Z,52.86
2018-06-16T01:14:48.050Z,52.80
2018-06-16T01:15:09.816Z,53.17
2018-06-16T01:15:31.583Z,52.53
2018-06-16T01:15:53.335Z,52.24
2018-06-16T01:16:15.136Z,52.43
2018-06-16T01:16:36.907Z,52.67
2018-06-16T01:16:58.712Z,52.83
2018-06-16T01:17:20.476Z,53.48
2018-06-16T01:17:42.254Z,52.51
2018-06-16T01:18:04.018Z,53.01
2018-06-16T01:18:25.774Z,53.14
2018-06-16T01:18:47.546Z,52.57
2018-06-16T01:19:09.293Z,53.16
2018-06-16T01:19:31.050Z,52.34
2018-06-16T01:19:52.824Z,52.65
2018-06-16T01:20:14.597Z,52.71
2018-06-16T01:20:36.378Z,53.25
2018-06-16T01:20:58.160Z,53.02
2018-06-16T01:21:19.924Z,53.02
2018-06-16T01:21:41.695Z,53.23
2018-06-16T01:22:03.483Z,52.60
2018-06-16T01:22:25.272Z,53.14
2018-06-16T01:22:47.039Z,52.81
2018-06-16T01:23:08.808Z,53.07
2018-06-16T01:23:30.577Z,53.38
2018-06-16T01:23:52.364Z,52.85
2018-06-16T01:24:14.132Z,52.95
2018-06-16T01:24:35.886Z,53.07
2018-06-16T01:24:57.662Z,52.65
2018-06-16T01:25:19.452Z,53.16
2018-06-16T01:25:41.214Z,53.38
2018-06-16T01:26:02.976Z,53.19
2018-06-16T01:26:24.760Z,52.66
2018-06-16T01:26:46.535Z,52.78
2018-06-16T01:27:08.340Z,53.58
2018-06-16T01:27:30.385Z,52.88
2018-06-16T01:27:52.131Z,52.67
2018-06-16T01:28:13.900Z,52.98
2018-06-16T01:28:35.656Z,52.91
2018-06-16T01:28:57.435Z,53.61
2018-06-16T01:29:19.218Z,52.81
2018-06-16T01:29:41.020Z,53.30
2018-06-16T01:30:02.817Z,53.31
2018-06-16T01:30:24.565Z,53.34
2018-06-16T01:30:46.339Z,52.90
2018-06-16T01:31:08.098Z,53.36
2018-06-16T01:31:29.910Z,53.11
2018-06-16T01:31:51.679Z,52.94
2018-06-16T01:32:13.501Z,52.88
2018-06-16T01:32:35.266Z,53.36
2018-06-16T01:32:57.034Z,53.51
2018-06-16T01:33:18.815Z,53.05
2018-06-16T01:33:40.601Z,53.35
2018-06-16T01:34:02.361Z,53.50
2018-06-16T01:34:24.169Z,53.17
2018-06-16T01:34:45.926Z,53.78
2018-06-16T01:35:07.676Z,53.76
2018-06-16T01:35:29.524Z,52.96
2018-06-16T01:35:51.319Z,53.17
2018-06-16T01:36:13.081Z,53.52
2018-06-16T01:36:35.072Z,53.72
2018-06-16T01:36:56.828Z,53.58
2018-06-16T01:37:18.915Z,53.59
2018-06-16T01:37:40.675Z,53.75
2018-06-16T01:38:02.438Z,53.19
2018-06-16T01:38:24.204Z,53.45
2018-06-16T01:38:45.988Z,53.08
2018-06-16T01:39:08.767Z,53.04
2018-06-16T01:39:30.552Z,53.84
2018-06-16T01:39:52.326Z,52.81
2018-06-16T01:40:14.091Z,54.03
2018-06-16T01:40:35.864Z,53.58
2018-06-16T01:40:57.623Z,53.92
2018-06-16T01:41:19.382Z,54.01
2018-06-16T01:41:41.132Z,53.39
2018-06-16T01:42:02.894Z,53.05
2018-06-16T01:42:24.680Z,52.79
2018-06-16T01:42:46.442Z,53.63
2018-06-16T01:43:08.360Z,53.33
2018-06-16T01:43:30.165Z,53.88
2018-06-16T01:43:51.929Z,53.52
2018-06-16T01:44:13.689Z,53.62
2018-06-16T01:44:35.451Z,53.76
2018-06-16T01:44:57.201Z,53.70
2018-06-16T01:45:18.966Z,53.56
2018-06-16T01:45:40.752Z,53.87
2018-06-16T01:46:02.507Z,54.01
2018-06-16T01:46:24.293Z,54.19
2018-06-16T01:47:08.005Z,53.58
2018-06-16T01:47:29.758Z,53.83
2018-06-16T01:47:51.544Z,53.97
2018-06-16T01:48:13.562Z,54.06
2018-06-16T01:49:18.463Z,53.74
2018-06-16T01:49:40.330Z,54.13
2018-06-16T01:50:02.260Z,53.92
2018-06-16T01:50:24.192Z,54.06
2018-06-16T01:50:46.108Z,53.67
2018-06-16T01:51:07.889Z,54.08
2018-06-16T01:51:30.002Z,53.37
2018-06-16T01:51:51.799Z,53.30
2018-06-16T01:52:13.558Z,53.29
2018-06-16T01:52:35.352Z,53.23
2018-06-16T01:52:57.150Z,53.50
2018-06-16T01:53:18.916Z,53.94
2018-06-16T01:53:40.670Z,53.47
2018-06-16T01:54:02.438Z,54.26
2018-06-16T01:54:24.212Z,54.02
2018-06-16T01:54:45.970Z,53.22
2018-06-16T01:55:07.743Z,53.60
2018-06-16T01:55:29.500Z,54.07
2018-06-16T01:55:51.272Z,53.57
2018-06-16T01:56:13.027Z,54.25
2018-06-16T01:56:34.792Z,53.57
2018-06-16T01:56:56.546Z,54.29
2018-06-16T01:57:18.305Z,53.98
2018-06-16T01:57:40.265Z,53.79
2018-06-16T01:58:02.028Z,53.69
2018-06-16T01:58:23.803Z,54.23
2018-06-16T01:58:45.770Z,54.22
2018-06-16T01:59:07.530Z,54.32
2018-06-16T01:59:29.295Z,53.62
2018-06-16T01:59:51.071Z,53.48
2018-06-16T02:00:12.935Z,53.99
2018-06-16T02:00:34.709Z,54.16
2018-06-16T02:00:56.485Z,53.97
2018-06-16T02:01:18.247Z,54.08
2018-06-16T02:01:40.016Z,53.49
2018-06-16T02:02:01.789Z,54.06
2018-06-16T02:02:23.539Z,54.35
2018-06-16T02:02:45.337Z,54.05
2018-06-16T02:03:07.271Z,54.82
2018-06-16T02:03:29.092Z,54.32
2018-06-16T02:03:50.882Z,54.17
2018-06-16T02:04:12.849Z,54.21
2018-06-16T02:04:34.600Z,53.78
2018-06-16T02:04:56.530Z,54.49
2018-06-16T02:05:18.292Z,54.09
2018-06-16T02:05:40.116Z,54.30
2018-06-16T02:06:01.884Z,54.02
2018-06-16T02:06:23.661Z,54.29
2018-06-16T02:06:45.599Z,53.80
2018-06-16T02:07:07.368Z,54.46
2018-06-16T02:07:29.256Z,54.58
2018-06-16T02:07:51.054Z,53.90
2018-06-16T02:08:12.990Z,54.53
2018-06-16T02:08:34.767Z,53.90
2018-06-16T02:08:56.527Z,54.72
2018-06-16T02:09:18.425Z,53.95
2018-06-16T02:09:40.204Z,53.75
2018-06-16T02:10:01.974Z,54.37
2018-06-16T02:10:23.727Z,54.35
2018-06-16T02:10:45.712Z,53.89
2018-06-16T02:11:07.484Z,54.22
2018-06-16T02:11:29.280Z,54.27
2018-06-16T02:11:51.034Z,53.81
2018-06-16T02:12:12.821Z,54.29
2018-06-16T02:12:34.602Z,54.66
2018-06-16T02:12:56.437Z,54.31
2018-06-16T02:13:18.390Z,54.15
2018-06-16T02:13:40.383Z,54.24
2018-06-16T02:14:02.164Z,54.00
2018-06-16T02:14:23.922Z,53.89
2018-06-16T02:14:45.687Z,54.74
2018-06-16T02:15:07.901Z,54.25
2018-06-16T02:15:29.667Z,54.64
2018-06-16T02:15:51.443Z,54.29
2018-06-16T02:16:13.240Z,54.31
2018-06-16T02:16:34.997Z,54.94
2018-06-16T02:16:56.759Z,54.51
2018-06-16T02:17:18.548Z,53.96
2018-06-16T02:17:40.331Z,54.00
2018-06-16T02:18:02.089Z,54.50
2018-06-16T02:18:23.847Z,54.56
2018-06-16T02:18:45.708Z,54.81
2018-06-16T02:19:07.676Z,54.37
2018-06-16T02:19:29.430Z,54.04
2018-06-16T02:19:51.179Z,54.36
2018-06-16T02:20:13.137Z,54.18
2018-06-16T02:20:35.085Z,54.62
2018-06-16T02:20:57.076Z,54.58
2018-06-16T02:21:18.855Z,54.97
2018-06-16T02:21:40.620Z,54.16
2018-06-16T02:22:02.397Z,55.01
2018-06-16T02:22:24.159Z,55.08
2018-06-16T02:22:45.941Z,54.78
2018-06-16T02:23:07.729Z,54.21
2018-06-16T02:23:29.494Z,55.00
2018-06-16T02:23:51.383Z,54.36
2018-06-16T02:24:13.132Z,54.27
2018-06-16T02:24:34.920Z,54.46
2018-06-16T02:24:56.851Z,54.81
2018-06-16T02:25:18.620Z,54.26
2018-06-16T02:25:40.571Z,54.85
2018-06-16T02:26:02.324Z,54.66
2018-06-16T02:26:24.098Z,54.35
2018-06-16T02:26:45.986Z,54.58
2018-06-16T02:27:07.759Z,55.16
2018-06-16T02:27:29.519Z,54.72
2018-06-16T02:27:51.308Z,54.53
2018-06-16T02:28:13.270Z,54.96
2018-06-16T02:28:35.015Z,55.06
2018-06-16T02:28:56.778Z,54.30
2018-06-16T02:29:18.551Z,55.12
2018-06-16T02:29:40.332Z,54.29
2018-06-16T02:30:02.083Z,54.31
2018-06-16T02:30:24.001Z,54.91
2018-06-16T02:30:45.780Z,55.28
2018-06-16T02:31:07.557Z,55.28
2018-06-16T02:31:29.315Z,55.02
2018-06-16T02:31:51.075Z,54.66
2018-06-16T02:32:12.848Z,55.21
2018-06-16T02:32:34.625Z,55.15
2018-06-16T02:32:56.771Z,55.24
2018-06-16T02:33:18.560Z,54.64
2018-06-16T02:33:40.387Z,54.95
2018-06-16T02:34:02.149Z,55.28
2018-06-16T02:34:23.915Z,55.09
2018-06-16T02:34:45.686Z,55.17
2018-06-16T02:35:07.470Z,54.83
2018-06-16T02:35:29.386Z,55.20
2018-06-16T02:35:51.155Z,54.47
2018-06-16T02:36:12.930Z,54.43
2018-06-16T02:36:34.712Z,54.43
2018-06-16T02:36:56.464Z,55.20
2018-06-16T02:37:18.246Z,54.59
2018-06-16T02:37:40.013Z,54.31
2018-06-16T02:38:08.202Z,55.38
2018-06-16T02:38:29.983Z,54.34
2018-06-16T02:38:51.738Z,54.77
2018-06-16T02:39:13.486Z,54.56
2018-06-16T02:39:35.244Z,54.33
2018-06-16T02:39:56.990Z,54.61
2018-06-16T02:40:18.772Z,54.76
2018-06-16T02:40:40.539Z,55.26
2018-06-16T02:41:02.301Z,54.61
2018-06-16T02:41:24.090Z,54.49
2018-06-16T02:41:45.864Z,55.12
2018-06-16T02:42:07.647Z,55.24
2018-06-16T02:42:29.421Z,54.66
2018-06-16T02:42:51.184Z,54.97
2018-06-16T02:43:12.964Z,54.74
2018-06-16T02:43:34.763Z,54.92
2018-06-16T02:43:56.524Z,55.35
2018-06-16T02:44:18.283Z,54.87
2018-06-16T02:44:40.177Z,55.13
2018-06-16T02:45:01.931Z,54.73
2018-06-16T02:45:23.707Z,55.09
2018-06-16T02:45:45.477Z,55.12
2018-06-16T02:46:07.262Z,55.67
2018-06-16T02:46:29.038Z,55.83
2018-06-16T02:46:50.790Z,55.39
2018-06-16T02:47:12.546Z,55.26
2018-06-16T02:47:34.308Z,55.06
2018-06-16T02:47:56.055Z,55.06
2018-06-16T02:48:17.816Z,54.87
2018-06-16T02:48:39.596Z,55.37
2018-06-16T02:49:01.375Z,54.80
2018-06-16T02:49:23.160Z,54.93
2018-06-16T02:49:44.927Z,54.88
2018-06-16T02:50:06.784Z,55.25
2018-06-16T02:50:28.590Z,55.52
2018-06-16T02:50:50.326Z,55.89
2018-06-16T02:51:12.158Z,55.85
2018-06-16T02:51:33.950Z,55.73
2018-06-16T02:51:55.740Z,55.80
2018-06-16T02:52:17.492Z,55.71
2018-06-16T02:52:39.252Z,55.16
2018-06-16T02:53:01.016Z,55.26
2018-06-16T02:53:22.800Z,55.73
2018-06-16T02:53:44.589Z,55.16
2018-06-16T02:54:06.341Z,55.66
2018-06-16T02:54:28.094Z,55.57
2018-06-16T02:54:49.871Z,55.26
2018-06-16T02:55:11.651Z,55.82
2018-06-16T02:55:33.432Z,55.80
2018-06-16T02:55:55.204Z,55.56
2018-06-16T02:56:16.972Z,55.03
2018-06-16T02:56:38.724Z,55.17
2018-06-16T02:57:00.507Z,55.50
2018-06-16T02:57:22.273Z,55.04
2018-06-16T02:57:44.080Z,55.00
2018-06-16T02:58:05.837Z,55.21
2018-06-16T02:58:27.600Z,55.22
2018-06-16T02:58:49.389Z,55.71
2018-06-16T02:59:11.140Z,55.74
2018-06-16T02:59:32.905Z,55.04
2018-06-16T02:59:54.680Z,55.44
2018-06-16T03:00:16.442Z,55.82
2018-06-16T03:00:38.236Z,55.82
2018-06-16T03:01:00.023Z,55.27
2018-06-16T03:01:21.784Z,55.84
2018-06-16T03:01:43.556Z,55.88
2018-06-16T03:02:05.308Z,55.21
2018-06-16T03:02:27.063Z,55.09
2018-06-16T03:02:48.844Z,55.51
2018-06-16T03:03:10.612Z,55.70
2018-06-16T03:03:32.452Z,55.63
2018-06-16T03:03:54.285Z,55.04
2018-06-16T03:04:16.065Z,55.64
2018-06-16T03:04:37.829Z,55.36
2018-06-16T03:04:59.586Z,55.72
2018-06-16T03:05:21.379Z,55.17
2018-06-16T03:05:43.157Z,55.15
2018-06-16T03:06:04.914Z,55.09
2018-06-16T03:06:26.674Z,55.93
2018-06-16T03:06:48.472Z,55.84
2018-06-16T03:07:10.236Z,55.30
2018-06-16T03:07:31.996Z,55.92
2018-06-16T03:07:53.844Z,55.35
2018-06-16T03:08:15.594Z,55.77
2018-06-16T03:08:37.352Z,55.75
2018-06-16T03:08:59.152Z,55.43
2018-06-16T03:09:20.917Z,55.73
2018-06-16T03:09:42.700Z,55.77
2018-06-16T03:10:04.443Z,55.34
2018-06-16T03:10:26.204Z,55.50
2018-06-16T03:10:47.958Z,55.39
2018-06-16T03:11:09.711Z,55.54
2018-06-16T03:11:31.615Z,55.87
2018-06-16T03:11:53.397Z,55.83
2018-06-16T03:12:15.184Z,55.35
2018-06-16T03:12:36.957Z,55.32
2018-06-16T03:12:58.937Z,55.19
2018-06-16T03:13:20.698Z,56.05
2018-06-16T03:13:42.644Z,55.83
2018-06-16T03:14:04.438Z,55.28
2018-06-16T03:14:26.192Z,55.43
2018-06-16T03:14:47.976Z,55.21
2018-06-16T03:15:09.803Z,55.95
2018-06-16T03:15:31.526Z,56.66
2018-06-16T03:15:53.304Z,56.00
2018-06-16T03:16:15.089Z,55.55
2018-06-16T03:16:36.860Z,55.45
2018-06-16T03:16:58.631Z,55.84
2018-06-16T03:17:20.371Z,56.19
2018-06-16T03:17:42.129Z,55.68
2018-06-16T03:18:03.902Z,55.96
2018-06-16T03:18:25.670Z,55.99
2018-06-16T03:18:47.424Z,55.62
2018-06-16T03:19:09.266Z,56.04
2018-06-16T03:19:31.031Z,55.92
2018-06-16T03:19:52.794Z,56.32
2018-06-16T03:20:14.547Z,56.40
2018-06-16T03:20:36.306Z,56.09
2018-06-16T03:20:58.053Z,55.62
2018-06-16T03:21:19.894Z,55.61
2018-06-16T03:21:41.882Z,55.42
2018-06-16T03:22:03.645Z,56.33
2018-06-16T03:22:25.412Z,56.23
2018-06-16T03:22:47.176Z,55.66
2018-06-16T03:23:08.950Z,56.07
2018-06-16T03:23:39.315Z,56.32
2018-06-16T03:24:01.078Z,55.48
2018-06-16T03:24:22.859Z,56.26
2018-06-16T03:24:44.625Z,55.52
2018-06-16T03:25:06.504Z,55.74
2018-06-16T03:25:28.456Z,55.46
2018-06-16T03:25:50.415Z,55.95
2018-06-16T03:26:12.201Z,56.35
2018-06-16T03:26:33.955Z,56.08
2018-06-16T03:26:55.727Z,55.90
2018-06-16T03:27:17.484Z,55.49
2018-06-16T03:27:39.265Z,55.82
2018-06-16T03:28:01.018Z,55.78
2018-06-16T03:28:22.772Z,55.70
2018-06-16T03:28:44.561Z,56.08
2018-06-16T03:29:06.660Z,55.57
2018-06-16T03:29:28.431Z,56.46
2018-06-16T03:29:50.189Z,55.60
2018-06-16T03:30:11.973Z,55.66
2018-06-16T03:30:33.730Z,56.21
2018-06-16T03:30:55.520Z,55.90
2018-06-16T03:31:17.275Z,56.03
2018-06-16T03:31:39.246Z,55.99
2018-06-16T03:32:01.003Z,55.66
2018-06-16T03:32:22.779Z,55.82
2018-06-16T03:32:44.531Z,55.54
2018-06-16T03:33:06.285Z,56.17
2018-06-16T03:33:28.039Z,55.70
2018-06-16T03:33:49.808Z,55.99
2018-06-16T03:34:11.558Z,56.71
2018-06-16T03:34:33.359Z,56.44
2018-06-16T03:34:55.199Z,55.81
2018-06-16T03:35:17.329Z,56.35
2018-06-16T03:35:39.111Z,56.21
2018-06-16T03:36:01.006Z,55.84
2018-06-16T03:36:22.820Z,56.00
2018-06-16T03:36:44.545Z,56.22
2018-06-16T03:37:06.318Z,56.10
2018-06-16T03:37:28.103Z,55.81
2018-06-16T03:37:49.876Z,56.52
2018-06-16T03:38:11.642Z,56.73
2018-06-16T03:38:33.415Z,56.14
2018-06-16T03:38:55.207Z,56.35
2018-06-16T03:39:16.960Z,55.92
2018-06-16T03:39:38.764Z,56.64
2018-06-16T03:40:00.531Z,55.94
2018-06-16T03:40:22.308Z,56.66
2018-06-16T03:40:44.321Z,56.39
2018-06-16T03:41:06.090Z,56.02
2018-06-16T03:41:27.940Z,55.97
2018-06-16T03:41:49.694Z,56.55
2018-06-16T03:42:11.459Z,56.17
2018-06-16T03:42:33.222Z,55.98
2018-06-16T03:42:54.984Z,56.28
2018-06-16T03:43:16.750Z,57.05
2018-06-16T03:43:38.734Z,56.74
2018-06-16T03:44:00.488Z,56.00
2018-06-16T03:44:22.242Z,56.12
2018-06-16T03:44:44.036Z,56.74
2018-06-16T03:45:05.799Z,56.40
2018-06-16T03:45:27.564Z,56.17
2018-06-16T03:45:49.351Z,55.71
2018-06-16T03:46:11.149Z,56.82
2018-06-16T03:46:32.986Z,56.44
2018-06-16T03:46:54.738Z,56.04
2018-06-16T03:47:16.654Z,56.43
2018-06-16T03:47:38.423Z,56.91
2018-06-16T03:48:00.376Z,56.44
2018-06-16T03:48:22.132Z,56.41
2018-06-16T03:48:43.907Z,57.02
2018-06-16T03:49:05.912Z,56.24
2018-06-16T03:49:27.679Z,56.51
2018-06-16T03:49:49.480Z,56.94
2018-06-16T03:50:11.497Z,56.60
2018-06-16T03:50:33.252Z,56.67
2018-06-16T03:50:55.018Z,56.57
2018-06-16T03:51:16.791Z,57.44
2018-06-16T03:51:38.779Z,57.00
2018-06-16T03:52:00.766Z,56.40
2018-06-16T03:52:22.523Z,56.40
2018-06-16T03:52:44.279Z,57.05
2018-06-16T03:53:06.972Z,56.87
2018-06-16T03:53:28.731Z,56.23
2018-06-16T03:53:50.496Z,56.43
2018-06-16T03:54:12.267Z,57.21
2018-06-16T03:54:34.032Z,56.02
2018-06-16T03:54:55.837Z,56.14
2018-06-16T03:55:17.619Z,56.18
2018-06-16T03:55:39.377Z,56.94
2018-06-16T03:56:01.151Z,56.45
2018-06-16T03:56:22.914Z,56.19
2018-06-16T03:56:44.693Z,56.63
2018-06-16T03:57:06.474Z,56.71
2018-06-16T03:57:28.274Z,56.71
2018-06-16T03:57:50.026Z,57.02
2018-06-16T03:58:11.792Z,56.41
2018-06-16T03:58:33.556Z,56.44
2018-06-16T03:58:55.315Z,57.19
2018-06-16T03:59:17.082Z,56.87
2018-06-16T03:59:38.839Z,56.42
2018-06-16T04:00:00.624Z,56.26
2018-06-16T04:00:22.397Z,56.60
2018-06-16T04:00:44.184Z,57.25
2018-06-16T04:01:05.946Z,56.37
2018-06-16T04:01:27.860Z,57.23
2018-06-16T04:01:49.686Z,56.75
2018-06-16T04:02:11.440Z,57.04
2018-06-16T04:02:33.250Z,56.27
2018-06-16T04:02:55.025Z,56.77
2018-06-16T04:03:16.785Z,57.13
2018-06-16T04:03:38.553Z,57.14
2018-06-16T04:04:00.425Z,56.89
2018-06-16T04:04:22.187Z,56.51
2018-06-16T04:04:43.931Z,56.36
2018-06-16T04:05:05.715Z,56.35
2018-06-16T04:05:27.481Z,56.83
2018-06-16T04:05:49.251Z,57.33
2018-06-16T04:06:11.035Z,56.62
2018-06-16T04:07:05.747Z,56.98
2018-06-16T04:07:27.518Z,56.95
2018-06-16T04:07:49.275Z,57.14
2018-06-16T04:08:11.042Z,56.97
2018-06-16T04:08:32.803Z,56.98
2018-06-16T04:08:54.572Z,56.43
2018-06-16T04:09:16.342Z,56.51
2018-06-16T04:09:38.108Z,56.37
2018-06-16T04:09:59.869Z,56.75
2018-06-16T04:10:21.675Z,57.25
2018-06-16T04:10:43.443Z,57.15
2018-06-16T04:11:05.224Z,57.28
2018-06-16T04:11:27.006Z,57.13
2018-06-16T04:11:48.759Z,57.23
2018-06-16T04:12:10.504Z,56.74
2018-06-16T04:12:32.263Z,56.88
2018-06-16T04:12:54.016Z,56.28
2018-06-16T04:13:15.778Z,56.95
2018-06-16T04:13:37.545Z,57.07
2018-06-16T04:13:59.318Z,56.74
2018-06-16T04:14:21.080Z,56.49
2018-06-16T04:14:42.847Z,56.36
2018-06-16T04:15:04.630Z,56.01
2018-06-16T04:15:26.422Z,56.68
2018-06-16T04:15:48.324Z,56.13
2018-06-16T04:16:10.088Z,56.83
2018-06-16T04:16:31.876Z,56.71
2018-06-16T04:16:53.627Z,56.52
2018-06-16T04:17:18.484Z,56.79
2018-06-16T04:17:40.248Z,56.42
2018-06-16T04:18:02.008Z,56.26
2018-06-16T04:18:23.807Z,56.21
2018-06-16T04:18:45.581Z,56.12
2018-06-16T04:19:07.349Z,56.59
2018-06-16T04:19:29.131Z,56.37
2018-06-16T04:19:51.948Z,56.77
2018-06-16T04:20:13.746Z,57.30
2018-06-16T04:20:35.529Z,56.52
2018-06-16T04:20:57.308Z,56.38
2018-06-16T04:21:19.082Z,56.21
2018-06-16T04:21:40.891Z,56.99
2018-06-16T04:22:02.643Z,56.61
2018-06-16T04:22:24.408Z,56.80
2018-06-16T04:22:46.179Z,56.47
2018-06-16T04:23:07.957Z,56.33
2018-06-16T04:23:29.705Z,56.92
2018-06-16T04:23:51.464Z,56.23
2018-06-16T04:24:13.239Z,56.55
2018-06-16T04:24:34.999Z,55.61
2018-06-16T04:24:56.764Z,56.61
2018-06-16T04:25:18.581Z,56.18
2018-06-16T04:25:40.332Z,56.78
2018-06-16T04:26:02.098Z,55.98
2018-06-16T04:26:23.860Z,57.16
2018-06-16T04:26:45.604Z,56.12
2018-06-16T04:27:07.357Z,56.08
2018-06-16T04:27:29.130Z,56.35
2018-06-16T04:27:50.919Z,56.14
2018-06-16T04:28:12.673Z,56.56
2018-06-16T04:28:34.835Z,56.08
2018-06-16T04:28:56.608Z,56.83
2018-06-16T04:29:18.388Z,56.92
2018-06-16T04:29:40.322Z,56.30
2018-06-16T04:30:02.092Z,56.66
2018-06-16T04:30:23.866Z,56.83
2018-06-16T04:30:45.678Z,56.67
2018-06-16T04:31:07.464Z,56.33
2018-06-16T04:31:29.235Z,56.25
2018-06-16T04:31:51.012Z,56.04
2018-06-16T04:32:12.776Z,56.05
2018-06-16T04:32:34.556Z,56.94
2018-06-16T04:32:56.327Z,56.51
2018-06-16T04:33:18.079Z,56.46
2018-06-16T04:33:39.891Z,56.65
2018-06-16T04:34:01.663Z,56.95
2018-06-16T04:34:23.421Z,56.35
2018-06-16T04:34:45.224Z,56.08
2018-06-16T04:35:06.955Z,56.63
2018-06-16T04:35:28.729Z,56.31
2018-06-16T04:35:50.533Z,56.67
2018-06-16T04:36:12.318Z,56.04
2018-06-16T04:36:34.084Z,56.53
2018-06-16T04:36:55.843Z,56.44
2018-06-16T04:37:17.600Z,56.89
2018-06-16T04:37:39.388Z,56.29
2018-06-16T04:38:01.151Z,56.33
2018-06-16T04:38:22.928Z,56.31
2018-06-16T04:38:44.711Z,56.47
2018-06-16T04:39:06.475Z,56.89
2018-06-16T04:39:28.232Z,56.50
2018-06-16T04:39:50.002Z,56.22
2018-06-16T04:40:11.775Z,56.34
2018-06-16T04:40:33.523Z,56.72
2018-06-16T04:40:55.307Z,56.69
2018-06-16T04:41:17.061Z,56.85
2018-06-16T04:41:38.824Z,56.19
2018-06-16T04:42:00.587Z,56.68
2018-06-16T04:42:22.353Z,56.34
2018-06-16T04:42:44.112Z,56.92